Time;durP1;ratioP1;P1;durP2;ratioP2;P2;SDS_P1;SDS_P2;PMS_P1;PMS_P2;Temp;Humidity;BMP_temperature;BMP_pressure;BME280_temperature;BME280_humidity;BME280_pressure;Samples;Min_cycle;Max_cycle;Signal;HPM_P1;HPM_P2
2024/04/14 00:00:16;;;;;;;;;;;;;;;19.71;41.35;100759.03;5249849;26;94582;-70
2024/04/14 00:02:43;;;;;;;;;;;;;;;19.70;41.88;100751.16;5230289;26;96495;-70
2024/04/14 00:05:10;;;;;;;;;;;;;;;19.69;41.34;100741.34;5232290;26;95145;-75
2024/04/14 00:07:37;;;;;;;;;;;;;;;19.68;41.63;100743.25;5228323;26;94530;-70
2024/04/14 00:10:05;;;;;;;;;;;;;;;19.67;41.93;100738.94;5189246;26;98215;-70
2024/04/14 00:12:31;;;;;;;;;;;;;;;19.66;41.30;100742.00;5225931;26;94168;-75
2024/04/14 00:14:57;;;;;;;;;;;;;;;19.66;41.83;100728.31;5252994;26;94541;-75
2024/04/14 00:17:23;;;;;;;;;;;;;;;19.65;41.72;100735.72;5264340;26;96560;-70
2024/04/14 00:19:52;;;;;;;;;;;;;;;19.64;41.98;100727.81;5227181;26;94538;-74
2024/04/14 00:22:18;;;;;;;;;;;;;;;19.64;41.37;100720.44;5233521;26;94491;-75
2024/04/14 00:24:47;;;;;;;;;;;;;;;19.62;41.39;100717.22;5259076;26;94362;-70
2024/04/14 00:27:15;;;;;;;;;;;;;;;19.62;41.71;100711.75;5232835;26;96479;-75
2024/04/14 00:29:43;;;;;;;;;;;;;;;19.61;41.73;100710.13;5224281;26;96235;-70
2024/04/14 00:32:11;;;;;;;;;;;;;;;19.60;41.75;100711.22;5204145;26;95714;-75
2024/04/14 00:34:39;;;;;;;;;;;;;;;19.58;41.49;100708.03;5235232;26;94155;-70
2024/04/14 00:37:06;;;;;;;;;;;;;;;19.57;41.87;100703.66;5234432;26;94768;-70
2024/04/14 00:39:33;;;;;;;;;;;;;;;19.55;41.85;100704.00;5229561;26;94575;-75
2024/04/14 00:41:59;;;;;;;;;;;;;;;19.56;41.50;100700.13;5251010;26;97459;-70
2024/04/14 00:44:25;;;;;;;;;;;;;;;19.56;41.92;100696.59;5231509;26;94568;-70
2024/04/14 00:46:52;;;;;;;;;;;;;;;19.54;41.58;100691.47;5238629;26;95334;-70
2024/04/14 00:49:19;;;;;;;;;;;;;;;19.53;42.05;100692.59;5195232;26;95608;-75
2024/04/14 00:51:45;;;;;;;;;;;;;;;19.52;41.79;100690.16;5254061;26;94736;-70
2024/04/14 00:54:17;;;;;;;;;;;;;;;19.52;42.01;100684.69;5229961;26;94775;-70
2024/04/14 00:56:46;;;;;;;;;;;;;;;19.52;41.60;100679.22;5260265;26;94385;-70
2024/04/14 00:59:13;;;;;;;;;;;;;;;19.51;42.00;100686.63;5199413;26;94773;-74
2024/04/14 01:01:41;;;;;;;;;;;;;;;19.50;41.68;100693.22;5205628;26;94739;-71
2024/04/14 01:04:07;;;;;;;;;;;;;;;19.50;41.95;100684.25;5232310;26;96337;-75
2024/04/14 01:06:34;;;;;;;;;;;;;;;19.50;41.74;100690.50;5227495;26;94628;-75
2024/04/14 01:09:03;;;;;;;;;;;;;;;19.49;41.59;100688.06;5230342;26;94254;-70
2024/04/14 01:11:29;;;;;;;;;;;;;;;19.49;42.00;100688.06;5208046;26;95852;-75
2024/04/14 01:13:56;;;;;;;;;;;;;;;19.48;42.08;100684.53;5263325;26;94844;-75
2024/04/14 01:16:25;;;;;;;;;;;;;;;19.48;42.05;100675.53;5209750;26;94842;-69
2024/04/14 01:18:52;;;;;;;;;;;;;;;19.48;41.44;100679.06;5235022;26;94623;-75
2024/04/14 01:21:18;;;;;;;;;;;;;;;19.46;41.67;100675.88;5253358;26;95033;-75
2024/04/14 01:23:45;;;;;;;;;;;;;;;19.46;41.66;100664.94;5258289;26;102144;-70
2024/04/14 01:26:12;;;;;;;;;;;;;;;19.46;42.12;100675.88;5224180;26;95251;-70
2024/04/14 01:28:40;;;;;;;;;;;;;;;19.47;41.90;100676.66;5198239;26;94522;-70
2024/04/14 01:31:06;;;;;;;;;;;;;;;19.45;41.95;100673.44;5237459;26;94472;-70
2024/04/14 01:33:33;;;;;;;;;;;;;;;19.45;42.20;100670.72;5256540;26;94708;-70
2024/04/14 01:35:59;;;;;;;;;;;;;;;19.43;41.87;100667.50;5280078;26;94765;-70
2024/04/14 01:38:27;;;;;;;;;;;;;;;19.43;42.09;100671.03;5256599;26;94543;-70
2024/04/14 01:40:55;;;;;;;;;;;;;;;19.42;41.90;100674.91;5251615;26;94328;-75
2024/04/14 01:43:21;;;;;;;;;;;;;;;19.42;42.08;100668.66;5265271;26;96172;-70
2024/04/14 01:45:47;;;;;;;;;;;;;;;19.41;42.18;100656.09;5282525;26;94488;-75
2024/04/14 01:48:13;;;;;;;;;;;;;;;19.41;41.66;100662.34;5238010;26;94675;-75
2024/04/14 01:50:40;;;;;;;;;;;;;;;19.40;42.05;100666.22;5254640;26;96621;-75
2024/04/14 01:53:06;;;;;;;;;;;;;;;19.38;42.06;100669.28;5229186;26;95036;-75
2024/04/14 01:55:36;;;;;;;;;;;;;;;19.37;41.82;100664.94;5256712;26;96046;-70
2024/04/14 01:58:03;;;;;;;;;;;;;;;19.38;41.80;100663.00;5231771;26;94785;-71
2024/04/14 02:00:29;;;;;;;;;;;;;;;19.36;42.03;100657.84;5254174;26;94378;-75
2024/04/14 02:02:56;;;;;;;;;;;;;;;19.36;41.81;100657.06;5211014;26;95210;-74
2024/04/14 02:05:25;;;;;;;;;;;;;;;19.34;41.93;100660.13;5279575;26;96123;-74
2024/04/14 02:07:52;;;;;;;;;;;;;;;19.34;41.93;100662.06;5256331;26;95777;-74
2024/04/14 02:10:19;;;;;;;;;;;;;;;19.34;41.82;100656.59;5278526;26;94893;-75
2024/04/14 02:12:46;;;;;;;;;;;;;;;19.36;42.12;100655.13;5233129;26;95382;-70
2024/04/14 02:15:13;;;;;;;;;;;;;;;19.43;41.91;100646.44;5257110;26;95125;-74
2024/04/14 02:17:40;;;;;;;;;;;;;;;19.50;41.69;100654.16;5282609;26;94616;-69
2024/04/14 02:20:06;;;;;;;;;;;;;;;19.56;41.89;100648.19;5202392;26;96662;-75
2024/04/14 02:22:32;;;;;;;;;;;;;;;19.59;41.61;100647.56;5233978;26;94730;-71
2024/04/14 02:24:59;;;;;;;;;;;;;;;19.63;41.81;100653.22;5255412;26;94611;-76
2024/04/14 02:27:28;;;;;;;;;;;;;;;19.65;41.46;100644.66;5252770;26;94640;-71
2024/04/14 02:29:54;;;;;;;;;;;;;;;19.67;42.07;100645.16;5251396;26;94406;-72
2024/04/14 02:32:21;;;;;;;;;;;;;;;19.67;42.21;100643.22;5259718;26;94509;-71
2024/04/14 02:34:47;;;;;;;;;;;;;;;19.69;41.79;100637.44;5231635;26;95116;-70
2024/04/14 02:37:13;;;;;;;;;;;;;;;19.70;42.03;100633.59;5230095;26;96200;-70
2024/04/14 02:39:41;;;;;;;;;;;;;;;19.70;42.36;100634.38;5254722;26;95511;-76
2024/04/14 02:42:07;;;;;;;;;;;;;;;19.70;42.24;100636.31;5260391;26;94552;-77
2024/04/14 02:44:33;;;;;;;;;;;;;;;19.70;42.19;100634.38;5225636;26;95184;-76
2024/04/14 02:47:00;;;;;;;;;;;;;;;19.70;42.05;100634.38;5195091;26;94867;-76
2024/04/14 02:49:28;;;;;;;;;;;;;;;19.70;41.97;100639.06;5201015;26;95345;-75
2024/04/14 02:51:54;;;;;;;;;;;;;;;19.69;41.86;100634.69;5234991;26;95216;-71
2024/04/14 02:54:21;;;;;;;;;;;;;;;19.68;41.82;100633.91;5224639;26;94183;-75
2024/04/14 02:56:49;;;;;;;;;;;;;;;19.68;42.46;100630.34;5234858;26;96521;-70
2024/04/14 02:59:16;;;;;;;;;;;;;;;19.66;42.34;100636.16;5232958;26;95248;-71
2024/04/14 03:01:44;;;;;;;;;;;;;;;19.65;41.80;100642.78;5197472;26;94657;-76
2024/04/14 03:04:10;;;;;;;;;;;;;;;19.64;42.59;100638.41;5285722;26;94590;-71
2024/04/14 03:06:37;;;;;;;;;;;;;;;19.64;42.00;100632.13;5251411;26;96958;-70
2024/04/14 03:09:04;;;;;;;;;;;;;;;19.61;42.13;100633.56;5234916;26;96124;-71
2024/04/14 03:11:31;;;;;;;;;;;;;;;19.61;42.51;100639.88;5235281;26;94143;-75
2024/04/14 03:13:58;;;;;;;;;;;;;;;19.59;41.88;100633.09;5226208;26;99167;-71
2024/04/14 03:16:26;;;;;;;;;;;;;;;19.57;41.92;100630.69;5249907;26;94989;-76
2024/04/14 03:18:53;;;;;;;;;;;;;;;19.56;42.22;100629.06;5245784;26;94513;-76
2024/04/14 03:21:19;;;;;;;;;;;;;;;19.55;41.86;100630.19;5278959;26;94863;-71
2024/04/14 03:23:46;;;;;;;;;;;;;;;19.53;41.97;100631.63;5203674;26;95791;-71
2024/04/14 03:26:12;;;;;;;;;;;;;;;19.51;42.00;100625.69;5259360;26;94448;-76
2024/04/14 03:28:38;;;;;;;;;;;;;;;19.50;42.48;100626.84;5225971;26;94607;-71
2024/04/14 03:31:04;;;;;;;;;;;;;;;19.49;41.99;100622.47;5252418;26;95642;-76
2024/04/14 03:33:30;;;;;;;;;;;;;;;19.48;42.03;100629.06;5230871;26;94336;-76
2024/04/14 03:36:01;;;;;;;;;;;;;;;19.47;42.16;100622.00;5253784;26;94610;-76
2024/04/14 03:38:27;;;;;;;;;;;;;;;19.46;42.36;100625.88;5260861;26;94384;-72
2024/04/14 03:40:54;;;;;;;;;;;;;;;19.44;42.17;100626.19;5231562;26;94963;-71
2024/04/14 03:43:20;;;;;;;;;;;;;;;19.44;42.32;100625.38;5196585;26;95126;-71
2024/04/14 03:45:49;;;;;;;;;;;;;;;19.43;41.94;100631.97;5249927;26;94509;-76
2024/04/14 03:48:16;;;;;;;;;;;;;;;19.40;42.12;100619.75;5183068;26;99613;-76
2024/04/14 03:50:42;;;;;;;;;;;;;;;19.41;42.40;100628.75;5252408;26;94339;-76
2024/04/14 03:53:09;;;;;;;;;;;;;;;19.38;42.29;100624.75;5193379;26;97235;-71
2024/04/14 03:55:35;;;;;;;;;;;;;;;19.36;42.24;100624.25;5229305;26;94963;-76
2024/04/14 03:58:02;;;;;;;;;;;;;;;19.36;42.34;100630.53;5253223;26;95150;-71
2024/04/14 04:00:29;;;;;;;;;;;;;;;19.35;42.32;100625.38;5231584;26;95122;-71
2024/04/14 04:02:56;;;;;;;;;;;;;;;19.34;42.04;100635.53;5194517;26;95374;-71
2024/04/14 04:05:24;;;;;;;;;;;;;;;19.34;42.00;100632.00;5193658;26;94565;-76
2024/04/14 04:07:52;;;;;;;;;;;;;;;19.32;42.19;100637.75;5252061;26;94731;-76
2024/04/14 04:10:18;;;;;;;;;;;;;;;19.32;42.47;100634.22;5237197;26;97537;-75
2024/04/14 04:12:44;;;;;;;;;;;;;;;19.30;42.04;100637.28;5220216;26;95151;-76
2024/04/14 04:15:11;;;;;;;;;;;;;;;19.30;42.23;100637.28;5225473;26;94503;-75
2024/04/14 04:17:38;;;;;;;;;;;;;;;19.30;42.23;100631.81;5228106;26;94180;-71
2024/04/14 04:20:05;;;;;;;;;;;;;;;19.30;42.29;100633.75;5194574;26;95475;-71
2024/04/14 04:22:31;;;;;;;;;;;;;;;19.29;42.49;100624.72;5279879;26;94603;-70
2024/04/14 04:24:57;;;;;;;;;;;;;;;19.29;42.45;100626.66;5219731;26;94329;-71
2024/04/14 04:27:24;;;;;;;;;;;;;;;19.31;42.33;100629.88;5249380;26;94231;-75
2024/04/14 04:29:50;;;;;;;;;;;;;;;19.31;42.21;100641.63;5232043;26;95222;-75
2024/04/14 04:32:17;;;;;;;;;;;;;;;19.32;42.43;100635.03;5249891;26;96197;-76
2024/04/14 04:34:46;;;;;;;;;;;;;;;19.34;42.36;100643.72;5257208;26;96742;-70
2024/04/14 04:37:15;;;;;;;;;;;;;;;19.35;42.48;100647.25;5228673;26;96077;-71
2024/04/14 04:39:43;;;;;;;;;;;;;;;19.37;42.19;100648.56;5257347;26;94792;-71
2024/04/14 04:42:10;;;;;;;;;;;;;;;19.39;42.00;100642.75;5251929;26;94942;-70
2024/04/14 04:44:38;;;;;;;;;;;;;;;19.41;42.29;100643.22;5225616;26;94465;-75
2024/04/14 04:47:07;;;;;;;;;;;;;;;19.44;41.84;100641.78;5216181;26;96703;-70
2024/04/14 04:49:35;;;;;;;;;;;;;;;19.47;42.28;100639.19;5222391;26;96895;-70
2024/04/14 04:52:01;;;;;;;;;;;;;;;19.51;42.07;100644.84;5206378;26;94432;-70
2024/04/14 04:54:27;;;;;;;;;;;;;;;19.55;42.34;100646.59;5253902;26;94350;-75
2024/04/14 04:56:53;;;;;;;;;;;;;;;19.61;42.37;100645.34;5256128;26;95143;-71
2024/04/14 04:59:22;;;;;;;;;;;;;;;19.66;42.38;100649.03;5234960;26;96432;-75
2024/04/14 05:01:48;;;;;;;;;;;;;;;19.70;42.28;100650.78;5227552;26;94630;-70
2024/04/14 05:04:16;;;;;;;;;;;;;;;19.75;42.10;100652.56;5277900;26;98077;-71
2024/04/14 05:06:42;;;;;;;;;;;;;;;19.77;41.93;100659.31;5217916;26;94945;-74
2024/04/14 05:09:09;;;;;;;;;;;;;;;19.82;41.48;100650.94;5245827;26;96173;-70
2024/04/14 05:11:35;;;;;;;;;;;;;;;19.89;41.85;100655.91;5205530;26;94216;-70
2024/04/14 05:14:02;;;;;;;;;;;;;;;19.96;41.51;100655.41;5195173;26;96249;-70
2024/04/14 05:16:28;;;;;;;;;;;;;;;20.03;42.19;100658.44;5218473;26;94608;-71
2024/04/14 05:18:54;;;;;;;;;;;;;;;20.09;42.22;100655.22;5251751;26;99009;-70
2024/04/14 05:21:21;;;;;;;;;;;;;;;20.15;41.94;100660.50;5230070;26;95097;-75
2024/04/14 05:23:47;;;;;;;;;;;;;;;20.21;41.56;100662.75;5229390;26;96824;-71
2024/04/14 05:26:13;;;;;;;;;;;;;;;20.25;41.42;100669.16;5247578;26;96168;-75
2024/04/14 05:28:41;;;;;;;;;;;;;;;20.30;41.83;100677.19;5232748;26;96064;-71
2024/04/14 05:31:08;;;;;;;;;;;;;;;20.32;41.90;100682.34;5226766;26;94503;-74
2024/04/14 05:33:35;;;;;;;;;;;;;;;20.35;41.89;100682.47;5228103;26;98450;-75
2024/04/14 05:36:01;;;;;;;;;;;;;;;20.40;42.42;100684.25;5226356;26;94646;-72
2024/04/14 05:38:28;;;;;;;;;;;;;;;20.47;41.36;100694.66;5219954;26;95810;-75
2024/04/14 05:40:56;;;;;;;;;;;;;;;20.54;42.36;100704.00;5253201;26;95000;-71
2024/04/14 05:43:22;;;;;;;;;;;;;;;20.65;41.45;100703.66;5226791;26;96129;-75
2024/04/14 05:45:50;;;;;;;;;;;;;;;20.71;41.95;100697.69;5244840;26;94799;-75
2024/04/14 05:48:17;;;;;;;;;;;;;;;20.78;41.04;100703.41;5196358;26;94886;-75
2024/04/14 05:50:43;;;;;;;;;;;;;;;20.87;41.87;100700.66;5232022;26;95514;-77
2024/04/14 05:53:11;;;;;;;;;;;;;;;20.96;41.02;100700.59;5245205;26;95260;-76
2024/04/14 05:55:37;;;;;;;;;;;;;;;21.06;41.45;100702.94;5215847;26;95397;-75
2024/04/14 05:58:04;;;;;;;;;;;;;;;21.18;41.51;100714.00;5193809;26;95946;-75
2024/04/14 06:00:32;;;;;;;;;;;;;;;21.28;41.65;100713.59;5233681;26;95518;-71
2024/04/14 06:02:59;;;;;;;;;;;;;;;21.37;42.01;100702.59;5243442;26;94944;-75
2024/04/14 06:05:26;;;;;;;;;;;;;;;21.49;41.21;100701.84;5245212;26;96414;-76
2024/04/14 06:07:53;;;;;;;;;;;;;;;21.60;40.82;100702.25;5248940;26;95296;-72
2024/04/14 06:10:20;;;;;;;;;;;;;;;21.73;40.71;100707.47;5217397;26;94548;-76
2024/04/14 06:12:48;;;;;;;;;;;;;;;21.85;41.32;100711.38;5223256;26;94904;-72
2024/04/14 06:15:14;;;;;;;;;;;;;;;22.00;40.59;100716.22;5241730;26;94494;-72
2024/04/14 06:17:40;;;;;;;;;;;;;;;22.14;41.59;100703.06;5197431;26;96360;-72
2024/04/14 06:20:07;;;;;;;;;;;;;;;22.30;41.06;100711.44;5217547;26;94521;-72
2024/04/14 06:22:33;;;;;;;;;;;;;;;22.45;40.50;100715.47;5245835;26;95888;-76
2024/04/14 06:24:59;;;;;;;;;;;;;;;22.58;41.07;100711.59;5249754;26;94365;-72
2024/04/14 06:27:27;;;;;;;;;;;;;;;22.71;41.30;100720.63;5215330;26;94973;-72
2024/04/14 06:29:54;;;;;;;;;;;;;;;22.80;40.92;100715.84;5217437;26;94808;-72
2024/04/14 06:32:21;;;;;;;;;;;;;;;22.92;40.66;100726.06;5225727;26;94636;-76
2024/04/14 06:34:49;;;;;;;;;;;;;;;23.01;40.93;100738.50;5225136;26;94718;-71
2024/04/14 06:37:18;;;;;;;;;;;;;;;23.15;40.69;100740.94;5223809;26;96065;-72
2024/04/14 06:39:46;;;;;;;;;;;;;;;23.39;40.36;100739.28;5219249;26;95201;-72
2024/04/14 06:42:13;;;;;;;;;;;;;;;23.72;40.59;100739.88;5187027;26;95394;-76
2024/04/14 06:44:41;;;;;;;;;;;;;;;24.09;40.34;100742.50;5272006;26;94806;-76
2024/04/14 06:47:09;;;;;;;;;;;;;;;24.51;40.28;100747.53;5214379;26;96201;-73
2024/04/14 06:49:35;;;;;;;;;;;;;;;24.80;39.88;100751.00;5221932;26;94731;-73
2024/04/14 06:52:01;;;;;;;;;;;;;;;25.21;39.41;100761.47;5204448;26;102430;-73
2024/04/14 06:54:30;;;;;;;;;;;;;;;25.45;39.59;100749.38;5242483;26;94502;-73
2024/04/14 06:56:56;;;;;;;;;;;;;;;25.52;39.96;100762.53;5246994;26;96045;-73
2024/04/14 06:59:23;;;;;;;;;;;;;;;25.56;40.34;100762.63;5246073;26;94838;-73
2024/04/14 07:01:49;;;;;;;;;;;;;;;25.52;40.74;100759.78;5228802;26;94710;-72
2024/04/14 07:04:15;;;;;;;;;;;;;;;25.50;40.27;100759.34;5190951;26;94635;-76
2024/04/14 07:06:41;;;;;;;;;;;;;;;25.56;39.93;100765.38;5269296;26;96846;-73
2024/04/14 07:09:08;;;;;;;;;;;;;;;25.70;39.52;100758.22;5227540;26;94620;-75
2024/04/14 07:11:34;;;;;;;;;;;;;;;25.97;39.68;100763.09;5226542;26;94435;-73
2024/04/14 07:14:00;;;;;;;;;;;;;;;25.95;39.65;100769.78;5186030;26;96056;-76
2024/04/14 07:16:27;;;;;;;;;;;;;;;26.17;39.39;100768.25;5271226;26;103278;-73
2024/04/14 07:18:54;;;;;;;;;;;;;;;26.16;39.24;100780.44;5256000;26;94917;-73
2024/04/14 07:21:23;;;;;;;;;;;;;;;26.03;40.03;100778.19;5248273;26;95154;-75
2024/04/14 07:23:50;;;;;;;;;;;;;;;25.90;40.98;100783.09;5246271;26;95141;-76
2024/04/14 07:26:16;;;;;;;;;;;;;;;25.95;40.22;100782.78;5220109;26;94777;-75
2024/04/14 07:28:42;;;;;;;;;;;;;;;25.87;39.81;100783.81;5218922;26;95534;-73
2024/04/14 07:31:10;;;;;;;;;;;;;;;25.67;40.53;100792.03;5201070;26;94746;-76
2024/04/14 07:33:38;;;;;;;;;;;;;;;25.82;40.94;100798.69;5244370;26;96794;-73
2024/04/14 07:36:05;;;;;;;;;;;;;;;25.83;39.69;100805.00;5255446;26;96020;-74
2024/04/14 07:38:32;;;;;;;;;;;;;;;25.88;39.67;100801.97;5247117;26;94826;-73
2024/04/14 07:40:59;;;;;;;;;;;;;;;26.15;40.21;100797.38;5227237;26;94855;-73
2024/04/14 07:43:25;;;;;;;;;;;;;;;26.17;40.75;100797.78;5250304;26;94461;-76
2024/04/14 07:45:51;;;;;;;;;;;;;;;26.13;40.32;100810.72;5255394;26;94533;-75
2024/04/14 07:48:18;;;;;;;;;;;;;;;26.13;39.94;100814.31;5254552;26;96799;-75
2024/04/14 07:50:44;;;;;;;;;;;;;;;25.94;40.42;100820.66;5235797;26;96913;-76
2024/04/14 07:53:11;;;;;;;;;;;;;;;25.95;40.18;100827.75;5228340;26;94596;-73
2024/04/14 07:55:37;;;;;;;;;;;;;;;26.51;40.21;100825.69;5246669;26;94703;-72
2024/04/14 07:58:04;;;;;;;;;;;;;;;26.96;39.29;100829.63;5221305;26;94757;-73
2024/04/14 08:00:30;;;;;;;;;;;;;;;27.55;38.78;100836.50;5224213;26;94614;-76
2024/04/14 08:02:56;;;;;;;;;;;;;;;27.97;38.77;100838.28;5252850;26;94831;-76
2024/04/14 08:05:22;;;;;;;;;;;;;;;28.50;38.65;100829.81;5268388;26;94826;-75
2024/04/14 08:07:48;;;;;;;;;;;;;;;28.47;39.12;100836.91;5216240;26;95472;-73
2024/04/14 08:10:14;;;;;;;;;;;;;;;28.27;39.27;100838.25;5188733;26;94809;-76
2024/04/14 08:12:41;;;;;;;;;;;;;;;28.16;39.30;100840.09;5219605;26;94720;-76
2024/04/14 08:15:07;;;;;;;;;;;;;;;28.03;39.78;100836.78;5218299;26;95596;-76
2024/04/14 08:17:34;;;;;;;;;;;;;;;28.11;39.24;100836.50;5231237;26;95572;-76
2024/04/14 08:20:02;;;;;;;;;;;;;;;28.19;39.25;100851.22;5226716;26;94441;-72
2024/04/14 08:22:29;;;;;;;;;;;;;;;28.90;38.86;100851.19;5204875;26;95025;-77
2024/04/14 08:24:55;;;;;;;;;;;;;;;29.80;38.40;100844.31;5229901;26;96026;-73
2024/04/14 08:27:21;;;;;;;;;;;;;;;29.87;37.85;100851.88;5228061;26;95705;-73
2024/04/14 08:29:48;;;;;;;;;;;;;;;30.21;38.33;100844.09;5226336;26;94672;-73
2024/04/14 08:32:14;;;;;;;;;;;;;;;30.70;38.39;100839.84;5227809;26;94392;-73
2024/04/14 08:34:41;;;;;;;;;;;;;;;30.69;38.49;100841.03;5247209;26;95190;-74
2024/04/14 08:37:11;;;;;;;;;;;;;;;31.09;37.43;100839.06;5244058;26;94833;-72
2024/04/14 08:39:40;;;;;;;;;;;;;;;31.99;37.31;100846.91;5252788;26;95508;-73
2024/04/14 08:42:08;;;;;;;;;;;;;;;32.09;37.65;100845.25;5193502;26;94940;-76
2024/04/14 08:44:38;;;;;;;;;;;;;;;32.34;37.47;100844.31;5200018;26;94750;-72
2024/04/14 08:47:05;;;;;;;;;;;;;;;33.09;37.07;100843.81;5233060;26;98665;-73
2024/04/14 08:49:32;;;;;;;;;;;;;;;33.35;36.83;100839.59;5222571;26;94868;-76
2024/04/14 08:51:58;;;;;;;;;;;;;;;33.66;37.02;100844.06;5258302;26;96804;-76
2024/04/14 08:54:25;;;;;;;;;;;;;;;33.99;37.12;100841.69;5245652;26;94512;-75
2024/04/14 08:56:59;;;;;;;;;;;;;;;34.30;36.39;100842.47;5230043;26;95067;-75
2024/04/14 08:59:25;;;;;;;;;;;;;;;34.70;37.08;100848.28;5246459;26;94470;-76
2024/04/14 09:01:52;;;;;;;;;;;;;;;33.81;37.55;100846.69;5228482;26;94784;-73
2024/04/14 09:04:22;;;;;;;;;;;;;;;34.23;37.34;100855.75;5219502;26;94595;-74
2024/04/14 09:06:49;;;;;;;;;;;;;;;33.82;37.18;100863.03;5193830;26;94596;-75
2024/04/14 09:09:16;;;;;;;;;;;;;;;33.28;38.01;100854.41;5228746;26;94866;-75
2024/04/14 09:12:01;;;;;;;;;;;;;;;32.76;38.38;100857.22;5230597;26;95921;-75
2024/04/14 09:14:28;;;;;;;;;;;;;;;32.31;38.86;100862.66;5228212;26;95186;-73
2024/04/14 09:16:57;;;;;;;;;;;;;;;31.82;39.24;100856.06;5229904;26;94631;-73
2024/04/14 09:19:23;;;;;;;;;;;;;;;31.40;38.63;100865.31;5215089;26;96246;-75
2024/04/14 09:21:50;;;;;;;;;;;;;;;31.51;38.76;100866.09;5200550;26;94673;-75
2024/04/14 09:24:16;;;;;;;;;;;;;;;31.04;39.55;100862.53;5222939;26;95338;-72
2024/04/14 09:26:47;;;;;;;;;;;;;;;31.52;38.45;100864.94;5246374;26;94771;-76
2024/04/14 09:29:16;;;;;;;;;;;;;;;32.55;37.43;100863.75;5222759;26;95736;-73
2024/04/14 09:31:43;;;;;;;;;;;;;;;33.17;37.22;100857.31;5226110;26;94620;-75
2024/04/14 09:34:09;;;;;;;;;;;;;;;34.58;35.83;100860.06;5193471;26;95171;-75
2024/04/14 09:36:35;;;;;;;;;;;;;;;35.10;36.35;100871.66;5250395;26;94693;-76
2024/04/14 09:39:03;;;;;;;;;;;;;;;35.01;35.97;100863.00;5252941;26;95079;-76
2024/04/14 09:41:29;;;;;;;;;;;;;;;35.01;36.43;100867.81;5227825;26;95150;-76
2024/04/14 09:43:55;;;;;;;;;;;;;;;35.52;36.53;100854.53;5226381;26;94247;-74
2024/04/14 09:46:22;;;;;;;;;;;;;;;35.82;36.03;100859.16;5254231;26;94598;-76
2024/04/14 09:48:48;;;;;;;;;;;;;;;36.34;36.14;100853.63;5226391;26;94683;-76
2024/04/14 09:51:17;;;;;;;;;;;;;;;36.82;35.74;100859.75;5220991;26;94416;-74
2024/04/14 09:53:44;;;;;;;;;;;;;;;36.90;36.16;100854.75;5192908;26;96757;-75
2024/04/14 09:56:12;;;;;;;;;;;;;;;37.09;35.58;100854.66;5244271;26;94332;-76
2024/04/14 09:58:38;;;;;;;;;;;;;;;37.46;35.32;100860.94;5223274;26;95485;-77
2024/04/14 10:01:13;;;;;;;;;;;;;;;37.41;36.10;100860.69;5243942;26;95719;-75
2024/04/14 10:03:39;;;;;;;;;;;;;;;37.22;36.15;100857.56;5196422;26;95460;-76
2024/04/14 10:06:07;;;;;;;;;;;;;;;37.46;35.85;100849.72;5244032;26;95182;-75
2024/04/14 10:08:35;;;;;;;;;;;;;;;37.57;35.63;100850.22;5227957;26;94534;-75
2024/04/14 10:11:05;;;;;;;;;;;;;;;37.16;36.23;100848.06;5218208;26;95950;-75
2024/04/14 10:13:53;;;;;;;;;;;;;;;36.96;36.74;100848.19;5198001;26;96005;-76
2024/04/14 10:16:21;;;;;;;;;;;;;;;36.59;36.53;100847.47;5247075;26;95450;-76
2024/04/14 10:18:47;;;;;;;;;;;;;;;36.00;37.55;100842.78;5200192;26;94850;-75
2024/04/14 10:21:18;;;;;;;;;;;;;;;34.91;38.13;100836.75;5246025;26;95001;-77
2024/04/14 10:23:52;;;;;;;;;;;;;;;34.13;38.16;100835.91;5226663;26;94803;-75
2024/04/14 10:26:18;;;;;;;;;;;;;;;33.47;38.48;100845.47;5227760;26;96046;-77
2024/04/14 10:28:48;;;;;;;;;;;;;;;32.86;39.02;100838.81;5247471;26;95973;-75
2024/04/14 10:31:27;;;;;;;;;;;;;;;32.56;38.88;100836.63;5218923;26;94738;-74
2024/04/14 10:34:24;;;;;;;;;;;;;;;33.17;38.00;100834.97;5218701;26;95717;-76
2024/04/14 10:37:04;;;;;;;;;;;;;;;34.65;36.94;100834.78;5235546;26;95049;-76
2024/04/14 10:39:31;;;;;;;;;;;;;;;35.08;36.40;100848.09;5250244;26;96073;-75
2024/04/14 10:41:59;;;;;;;;;;;;;;;35.56;36.52;100841.25;5231503;26;94946;-77
2024/04/14 10:44:26;;;;;;;;;;;;;;;36.14;35.99;100831.22;5246534;26;97140;-75
2024/04/14 10:46:55;;;;;;;;;;;;;;;35.42;37.27;100834.66;5189996;26;95137;-76
2024/04/14 10:49:23;;;;;;;;;;;;;;;34.83;37.20;100829.69;5258076;26;96598;-75
2024/04/14 10:51:51;;;;;;;;;;;;;;;34.68;37.21;100831.94;5204961;26;96666;-75
2024/04/14 10:54:19;;;;;;;;;;;;;;;33.89;38.03;100837.78;5221802;26;94617;-75
2024/04/14 10:56:47;;;;;;;;;;;;;;;33.57;38.23;100827.00;5233306;26;95002;-75
2024/04/14 10:59:13;;;;;;;;;;;;;;;32.90;38.44;100831.22;5192941;26;94569;-76
2024/04/14 11:01:40;;;;;;;;;;;;;;;32.53;38.27;100843.81;5216255;26;96137;-74
2024/04/14 11:04:14;;;;;;;;;;;;;;;32.29;38.13;100833.59;5277863;26;94953;-76
2024/04/14 11:06:42;;;;;;;;;;;;;;;32.00;38.42;100837.31;5247098;26;95022;-74
2024/04/14 11:09:10;;;;;;;;;;;;;;;31.54;39.15;100840.25;5232819;26;96482;-75
2024/04/14 11:11:37;;;;;;;;;;;;;;;31.90;37.93;100840.94;5213168;26;96139;-75
2024/04/14 11:14:04;;;;;;;;;;;;;;;31.82;37.87;100844.91;5198429;26;94602;-74
2024/04/14 11:16:32;;;;;;;;;;;;;;;31.73;38.61;100839.78;5191910;26;94926;-73
2024/04/14 11:18:59;;;;;;;;;;;;;;;31.13;38.46;100835.13;5220850;26;95633;-75
2024/04/14 11:21:27;;;;;;;;;;;;;;;30.91;38.84;100831.53;5221986;26;95094;-75
2024/04/14 11:23:54;;;;;;;;;;;;;;;31.45;38.19;100832.31;5225297;26;94609;-76
2024/04/14 11:26:23;;;;;;;;;;;;;;;30.96;38.65;100833.91;5249891;26;94820;-74
2024/04/14 11:28:49;;;;;;;;;;;;;;;31.63;38.11;100832.25;5249974;26;94713;-73
2024/04/14 11:31:17;;;;;;;;;;;;;;;31.38;38.05;100837.09;5228428;26;94519;-74
2024/04/14 11:34:06;;;;;;;;;;;;;;;31.48;38.14;100851.00;5254754;26;96865;-73
2024/04/14 11:36:34;;;;;;;;;;;;;;;30.88;38.61;100845.44;5220942;26;95302;-75
2024/04/14 11:39:04;;;;;;;;;;;;;;;30.43;38.22;100845.75;5223604;26;94733;-75
2024/04/14 11:41:31;;;;;;;;;;;;;;;29.96;39.65;100847.56;5252077;26;94693;-74
2024/04/14 11:43:58;;;;;;;;;;;;;;;30.45;38.84;100848.13;5194317;26;96228;-75
2024/04/14 11:46:25;;;;;;;;;;;;;;;30.12;38.11;100852.00;5222018;26;94407;-73
2024/04/14 11:48:53;;;;;;;;;;;;;;;29.87;38.53;100855.47;5247284;26;96116;-75
2024/04/14 11:51:22;;;;;;;;;;;;;;;30.17;38.54;100841.31;5250467;26;94901;-74
2024/04/14 11:53:49;;;;;;;;;;;;;;;30.32;38.13;100854.06;5225440;26;95616;-75
2024/04/14 11:56:19;;;;;;;;;;;;;;;30.16;38.96;100850.84;5231080;26;94342;-75
2024/04/14 11:58:45;;;;;;;;;;;;;;;29.92;39.15;100859.84;5228232;26;94317;-73
2024/04/14 12:01:14;;;;;;;;;;;;;;;29.63;39.08;100861.66;5250617;26;95554;-72
2024/04/14 12:03:40;;;;;;;;;;;;;;;29.56;38.92;100859.63;5254443;26;95049;-75
2024/04/14 12:06:07;;;;;;;;;;;;;;;29.50;39.02;100859.19;5192230;26;94513;-75
2024/04/14 12:08:35;;;;;;;;;;;;;;;29.28;38.39;100865.78;5219872;26;95143;-75
2024/04/14 12:11:04;;;;;;;;;;;;;;;29.24;38.66;100864.94;5191783;26;96124;-75
2024/04/14 12:13:31;;;;;;;;;;;;;;;29.69;37.69;100866.47;5245371;26;94600;-75
2024/04/14 12:15:58;;;;;;;;;;;;;;;30.66;37.80;100861.31;5247587;26;96731;-75
2024/04/14 12:18:28;;;;;;;;;;;;;;;31.42;37.06;100849.81;5214680;26;95929;-74
2024/04/14 12:20:56;;;;;;;;;;;;;;;32.01;36.30;100861.19;5204750;26;95223;-74
2024/04/14 12:23:23;;;;;;;;;;;;;;;32.12;36.99;100866.72;5196045;26;96185;-75
2024/04/14 12:25:49;;;;;;;;;;;;;;;31.95;37.44;100865.63;5228752;26;95643;-74
2024/04/14 12:28:18;;;;;;;;;;;;;;;31.55;37.14;100864.09;5256279;26;95417;-75
2024/04/14 12:30:45;;;;;;;;;;;;;;;31.34;37.53;100844.66;5222977;26;94440;-74
2024/04/14 12:33:12;;;;;;;;;;;;;;;31.11;37.46;100851.41;5250541;26;95724;-75
2024/04/14 12:35:39;;;;;;;;;;;;;;;31.96;37.00;100836.53;5214345;26;94987;-75